createdAt,value
2018-09-25T00:03:53.660Z,67.80
2018-09-25T00:09:02.138Z,67.90
2018-09-25T00:14:10.773Z,67.80
2018-09-25T00:19:19.486Z,68.10
2018-09-25T00:24:27.988Z,68.20
2018-09-25T00:29:36.500Z,68.40
2018-09-25T00:34:44.989Z,68.30
2018-09-25T00:39:53.616Z,69.00
2018-09-25T00:45:02.200Z,68.50
2018-09-25T00:50:10.848Z,68.60
2018-09-25T00:55:19.389Z,68.80
2018-09-25T01:00:27.888Z,68.90
2018-09-25T01:05:36.228Z,69.00
2018-09-25T01:10:44.708Z,69.00
2018-09-25T01:15:52.987Z,68.90
2018-09-25T01:21:01.401Z,69.20
2018-09-25T01:26:10.656Z,69.40
2018-09-25T01:31:19.042Z,69.50
2018-09-25T01:36:27.424Z,69.40
2018-09-25T01:41:36.110Z,69.50
2018-09-25T01:46:44.717Z,69.60
2018-09-25T01:51:53.383Z,69.90
2018-09-25T01:57:01.852Z,70.00
2018-09-25T02:02:10.836Z,70.10
2018-09-25T02:07:19.392Z,70.40
2018-09-25T02:12:27.905Z,70.40
2018-09-25T02:17:36.363Z,70.50
2018-09-25T02:22:44.792Z,70.30
2018-09-25T02:27:53.228Z,70.60
2018-09-25T02:33:01.834Z,70.60
2018-09-25T02:38:10.940Z,70.90
2018-09-25T02:43:19.404Z,71.20
2018-09-25T02:48:27.833Z,71.30
2018-09-25T02:53:36.114Z,71.10
2018-09-25T02:58:44.400Z,71.00
2018-09-25T03:03:52.828Z,71.20
2018-09-25T03:09:01.240Z,71.50
2018-09-25T03:14:10.697Z,71.60
2018-09-25T03:19:19.228Z,71.70
2018-09-25T03:24:27.854Z,71.90
2018-09-25T03:29:36.271Z,71.90
2018-09-25T03:34:44.581Z,72.00
2018-09-25T03:39:53.108Z,72.00
2018-09-25T03:45:01.649Z,72.20
2018-09-25T03:50:10.404Z,72.20
2018-09-25T03:55:19.093Z,72.30
2018-09-25T04:00:27.700Z,72.30
2018-09-25T04:05:36.296Z,71.90
2018-09-25T04:10:44.937Z,71.90
2018-09-25T04:15:53.492Z,71.70
2018-09-25T04:21:01.824Z,71.80
2018-09-25T04:26:10.765Z,71.80
2018-09-25T04:31:19.340Z,72.00
2018-09-25T04:36:27.872Z,71.80
2018-09-25T04:41:36.353Z,72.00
2018-09-25T04:46:44.732Z,72.00
2018-09-25T04:51:53.140Z,72.20
2018-09-25T04:57:01.708Z,72.10
2018-09-25T05:02:11.308Z,72.00
2018-09-25T05:07:19.621Z,71.90
2018-09-25T05:12:28.019Z,71.80
2018-09-25T05:17:36.307Z,71.90
2018-09-25T05:22:45.021Z,72.10
2018-09-25T05:27:53.496Z,72.30
2018-09-25T05:33:02.161Z,72.00
2018-09-25T05:38:11.212Z,72.10
2018-09-25T05:43:19.720Z,72.30
2018-09-25T05:48:28.105Z,72.40
2018-09-25T05:53:36.742Z,72.50
2018-09-25T05:58:45.349Z,72.90
2018-09-25T06:03:54.012Z,73.10
2018-09-25T06:09:02.561Z,73.20
2018-09-25T06:14:10.840Z,74.30
2018-09-25T06:19:19.352Z,73.70
2018-09-25T06:24:27.712Z,74.00
2018-09-25T06:29:36.111Z,74.00
2018-09-25T06:34:44.527Z,74.10
2018-09-25T06:39:52.932Z,74.10
2018-09-25T06:45:01.337Z,74.00
2018-09-25T06:50:10.444Z,73.90
2018-09-25T06:55:19.024Z,73.60
2018-09-25T07:00:27.513Z,73.60
2018-09-25T07:05:36.065Z,73.10
2018-09-25T07:10:44.716Z,72.90
2018-09-25T07:15:53.032Z,72.20
2018-09-25T07:21:01.548Z,71.60
2018-09-25T07:26:10.424Z,72.00
2018-09-25T07:31:18.792Z,72.10
2018-09-25T07:36:27.367Z,70.60
2018-09-25T07:41:35.747Z,70.50
2018-09-25T07:46:44.036Z,70.10
2018-09-25T07:51:52.441Z,69.40
2018-09-25T07:57:00.853Z,68.60
2018-09-25T08:02:09.251Z,67.60
2018-09-25T08:07:17.792Z,66.20
2018-09-25T08:12:26.320Z,65.50
2018-09-25T08:17:34.856Z,64.60
2018-09-25T08:22:43.365Z,63.10
2018-09-25T08:27:51.800Z,61.10
2018-09-25T08:33:00.327Z,60.30
2018-09-25T08:38:08.765Z,59.20
2018-09-25T08:43:17.448Z,58.60
2018-09-25T08:48:25.832Z,58.50
2018-09-25T08:53:34.504Z,58.40
2018-09-25T08:58:42.809Z,57.60
2018-09-25T09:03:51.360Z,56.70
2018-09-25T09:09:00.077Z,56.10
2018-09-25T09:14:08.604Z,54.80
2018-09-25T09:19:17.184Z,53.80
2018-09-25T09:24:25.802Z,53.30
2018-09-25T09:29:34.249Z,52.30
2018-09-25T09:34:42.688Z,52.80
2018-09-25T09:39:51.175Z,52.70
2018-09-25T09:44:59.752Z,51.00
2018-09-25T09:50:08.659Z,50.50
2018-09-25T09:55:17.101Z,49.00
2018-09-25T10:00:25.833Z,49.00
2018-09-25T10:05:34.436Z,49.40
2018-09-25T10:10:43.076Z,50.80
2018-09-25T10:15:51.660Z,51.20
2018-09-25T10:21:00.382Z,49.30
2018-09-25T10:26:08.825Z,48.40
2018-09-25T10:31:17.506Z,49.90
2018-09-25T10:36:26.045Z,49.20
2018-09-25T10:41:34.544Z,46.90
2018-09-25T10:46:42.953Z,49.20
2018-09-25T10:51:51.540Z,48.00
2018-09-25T10:57:00.195Z,49.30
2018-09-25T11:02:08.736Z,49.80
2018-09-25T11:07:17.165Z,50.90
2018-09-25T11:12:25.570Z,50.10
2018-09-25T11:17:33.979Z,50.50
2018-09-25T11:22:42.709Z,48.00
2018-09-25T11:27:51.085Z,47.70
2018-09-25T11:32:59.504Z,47.30
2018-09-25T11:38:07.891Z,48.80
2018-09-25T11:43:16.181Z,48.30
2018-09-25T11:48:24.708Z,45.90
2018-09-25T11:53:33.220Z,46.40
2018-09-25T11:58:41.676Z,44.40
2018-09-25T12:03:50.135Z,46.60
2018-09-25T12:08:58.521Z,46.00
2018-09-25T12:14:06.908Z,45.80
2018-09-25T12:19:15.366Z,46.10
2018-09-25T12:24:23.958Z,45.00
2018-09-25T12:29:32.410Z,45.50
2018-09-25T12:34:41.126Z,45.50
2018-09-25T12:39:49.628Z,45.00
2018-09-25T12:44:58.209Z,45.40
2018-09-25T12:50:06.940Z,44.90
2018-09-25T12:55:15.526Z,44.70
2018-09-25T13:00:23.960Z,43.30
2018-09-25T13:05:32.512Z,43.70
2018-09-25T13:10:41.101Z,41.30
2018-09-25T13:15:49.616Z,41.40
2018-09-25T13:20:58.303Z,42.10
2018-09-25T13:26:06.908Z,41.70
2018-09-25T13:31:15.489Z,42.20
2018-09-25T13:36:23.821Z,42.30
2018-09-25T13:41:32.405Z,42.10
2018-09-25T13:46:41.083Z,42.00
2018-09-25T13:51:49.446Z,41.00
2018-09-25T13:56:58.028Z,40.20
2018-09-25T14:02:06.460Z,40.20
2018-09-25T14:07:14.872Z,38.70
2018-09-25T14:12:23.409Z,38.00
2018-09-25T14:17:31.916Z,38.90
2018-09-25T14:22:40.428Z,39.90
2018-09-25T14:27:49.119Z,40.20
2018-09-25T14:32:57.759Z,39.60
2018-09-25T14:38:06.253Z,39.70
2018-09-25T14:43:14.871Z,40.20
2018-09-25T14:48:23.343Z,40.00
2018-09-25T14:53:31.881Z,39.40
2018-09-25T14:58:40.542Z,40.40
2018-09-25T15:03:49.040Z,40.50
2018-09-25T15:08:57.677Z,39.00
2018-09-25T15:14:06.112Z,39.70
2018-09-25T15:19:14.439Z,39.60
2018-09-25T15:24:23.009Z,38.90
2018-09-25T15:29:31.408Z,37.40
2018-09-25T15:34:39.928Z,37.50
2018-09-25T15:39:48.479Z,37.70
2018-09-25T15:44:57.008Z,39.50
2018-09-25T15:50:05.429Z,39.60
2018-09-25T15:55:13.976Z,40.70
2018-09-25T16:00:22.536Z,40.90
2018-09-25T16:05:31.049Z,39.60
2018-09-25T16:10:39.492Z,40.10
2018-09-25T16:20:55.301Z,40.90
2018-09-25T16:26:03.839Z,41.00
2018-09-25T16:31:12.436Z,41.90
2018-09-25T16:36:20.806Z,41.70
2018-09-25T16:41:29.380Z,41.80
2018-09-25T16:46:38.116Z,42.00
2018-09-25T16:51:46.672Z,42.40
2018-09-25T16:56:55.064Z,42.60
2018-09-25T17:02:03.497Z,43.10
2018-09-25T17:07:12.200Z,43.50
2018-09-25T17:12:20.764Z,44.10
2018-09-25T17:17:29.384Z,44.80
2018-09-25T17:22:37.677Z,45.70
2018-09-25T17:27:46.135Z,46.20
2018-09-25T17:32:54.500Z,46.70
2018-09-25T17:38:02.968Z,47.70
2018-09-25T17:43:11.525Z,48.10
2018-09-25T17:48:20.176Z,48.70
2018-09-25T17:53:28.747Z,49.10
2018-09-25T17:58:37.436Z,49.40
2018-09-25T18:03:45.965Z,49.70
2018-09-25T18:08:54.549Z,50.20
2018-09-25T18:14:03.029Z,50.30
2018-09-25T18:19:11.792Z,50.50
2018-09-25T18:24:20.257Z,51.10
2018-09-25T18:29:28.737Z,51.60
2018-09-25T18:34:37.150Z,51.50
2018-09-25T18:39:45.624Z,51.60
2018-09-25T18:44:54.031Z,52.30
2018-09-25T18:50:02.436Z,52.90
2018-09-25T18:55:10.876Z,53.00
2018-09-25T19:00:19.236Z,53.20
2018-09-25T19:05:27.725Z,53.60
2018-09-25T19:10:35.996Z,53.60
2018-09-25T19:15:44.537Z,53.90
2018-09-25T19:20:52.921Z,54.10
2018-09-25T19:26:01.344Z,54.00
2018-09-25T19:38:44.101Z,54.20
2018-09-25T19:43:52.652Z,54.30
2018-09-25T19:49:01.161Z,54.20
2018-09-25T19:54:09.824Z,54.00
2018-09-25T19:59:18.337Z,54.30
2018-09-25T20:04:26.909Z,54.70
2018-09-25T20:09:35.261Z,54.70
2018-09-25T20:14:43.852Z,55.20
2018-09-25T20:19:52.383Z,55.40
2018-09-25T20:25:00.949Z,56.40
2018-09-25T20:30:09.381Z,56.50
2018-09-25T20:35:17.885Z,57.10
2018-09-25T20:40:26.240Z,57.30
2018-09-25T20:45:34.620Z,57.40
2018-09-25T20:50:43.090Z,57.60
2018-09-25T20:55:51.588Z,58.10
2018-09-25T21:01:00.029Z,57.90
2018-09-25T21:06:08.614Z,58.40
2018-09-25T21:11:17.145Z,58.80
2018-09-25T21:16:25.650Z,59.00
2018-09-25T21:21:34.068Z,59.60
2018-09-25T21:26:42.616Z,59.50
2018-09-25T21:31:51.027Z,59.40
2018-09-25T21:36:59.560Z,60.00
2018-09-25T21:42:08.047Z,60.10
2018-09-25T21:47:16.528Z,60.30
2018-09-25T21:52:25.080Z,60.20
2018-09-25T21:57:33.809Z,60.20
2018-09-25T22:02:42.248Z,60.50
2018-09-25T22:07:50.765Z,60.50
2018-09-25T22:12:59.236Z,60.50
2018-09-25T22:18:07.844Z,60.60
2018-09-25T22:23:16.525Z,60.70
2018-09-25T22:28:25.035Z,60.80
2018-09-25T22:33:33.700Z,61.20
2018-09-25T22:38:42.103Z,61.50
2018-09-25T22:43:50.707Z,61.50
2018-09-25T22:48:59.046Z,61.90
2018-09-25T22:54:07.468Z,61.60
2018-09-25T22:59:15.871Z,62.00
2018-09-25T23:04:24.431Z,62.30
2018-09-25T23:09:32.971Z,62.40
2018-09-25T23:14:41.248Z,62.40
2018-09-25T23:19:49.760Z,62.50
2018-09-25T23:24:58.296Z,62.50
2018-09-25T23:30:06.776Z,62.40
2018-09-25T23:35:15.164Z,62.50
2018-09-25T23:40:22.731Z,62.80
2018-09-25T23:45:31.300Z,62.80
2018-09-25T23:50:39.881Z,62.90
2018-09-25T23:56:49.646Z,63.20
